Hartford, Connecticut
Traffic Map
Current Weather Conditions
Hartford, Connecticut
Clear
Clear
78°
Feels Like: 80°
Wind Chill: 78° Ceiling: Unl
Heat Index: 80° Visibility: 10mi
Dew Point: 65° Wind: 5mph
Humidity: 64% Direction: 320° (NW)
Pressure: 29.97in Gusts: 0mph
Raw Report DataKHFD 010353Z AUTO 32004KT 10SM CLR 26/18 A2997 RMK AO2 SLP148 T02560183
Traffic Incident Summary
Active as of:
Severity:
Category:
InformationThere was an issue retrieving the traffic information for this location. Please try a different location or try again shortly.
Advertisements
Track Severe Weather on mobile